sensor_id;sensor_type;location;lat;lon;timestamp;temperature;humidity
67163;DHT22;54092;53.088;8.850;2023-12-22T00:01:33;5.20;99.90
67163;DHT22;54092;53.088;8.850;2023-12-22T00:03:59;5.20;99.90
67163;DHT22;54092;53.088;8.850;2023-12-22T00:06:25;5.20;99.90
67163;DHT22;54092;53.088;8.850;2023-12-22T00:08:50;5.20;99.90
67163;DHT22;54092;53.088;8.850;2023-12-22T00:11:16;5.10;99.90
67163;DHT22;54092;53.088;8.850;2023-12-22T00:13:41;5.10;99.90
67163;DHT22;54092;53.088;8.850;2023-12-22T00:16:07;5.10;99.90
67163;DHT22;54092;53.088;8.850;2023-12-22T00:18:32;5.10;99.90
67163;DHT22;54092;53.088;8.850;2023-12-22T00:20:58;5.10;99.90
67163;DHT22;54092;53.088;8.850;2023-12-22T00:23:23;5.10;99.90
67163;DHT22;54092;53.088;8.850;2023-12-22T00:25:49;5.10;99.90
67163;DHT22;54092;53.088;8.850;2023-12-22T00:28:14;5.00;99.90
67163;DHT22;54092;53.088;8.850;2023-12-22T00:30:40;5.00;99.90
67163;DHT22;54092;53.088;8.850;2023-12-22T00:33:05;4.90;99.90
67163;DHT22;54092;53.088;8.850;2023-12-22T00:35:31;4.90;99.90
67163;DHT22;54092;53.088;8.850;2023-12-22T00:37:56;4.90;99.90
67163;DHT22;54092;53.088;8.850;2023-12-22T00:40:22;4.90;99.90
67163;DHT22;54092;53.088;8.850;2023-12-22T00:42:48;4.90;99.90
67163;DHT22;54092;53.088;8.850;2023-12-22T00:45:13;4.90;99.90
67163;DHT22;54092;53.088;8.850;2023-12-22T00:47:39;4.90;99.90
67163;DHT22;54092;53.088;8.850;2023-12-22T00:50:04;4.90;99.90
67163;DHT22;54092;53.088;8.850;2023-12-22T00:52:31;4.90;99.90
67163;DHT22;54092;53.088;8.850;2023-12-22T00:54:57;4.90;99.90
67163;DHT22;54092;53.088;8.850;2023-12-22T00:57:22;4.90;99.90
67163;DHT22;54092;53.088;8.850;2023-12-22T00:59:48;4.90;99.90
67163;DHT22;54092;53.088;8.850;2023-12-22T01:02:14;4.90;99.90
67163;DHT22;54092;53.088;8.850;2023-12-22T01:04:40;4.90;99.90
67163;DHT22;54092;53.088;8.850;2023-12-22T01:07:07;4.80;99.90
67163;DHT22;54092;53.088;8.850;2023-12-22T01:09:33;4.80;99.90
67163;DHT22;54092;53.088;8.850;2023-12-22T01:11:59;4.80;99.90
67163;DHT22;54092;53.088;8.850;2023-12-22T01:14:27;4.90;99.90
67163;DHT22;54092;53.088;8.850;2023-12-22T01:16:53;4.80;99.90
67163;DHT22;54092;53.088;8.850;2023-12-22T01:19:18;4.80;99.90
67163;DHT22;54092;53.088;8.850;2023-12-22T01:21:44;4.70;99.90
67163;DHT22;54092;53.088;8.850;2023-12-22T01:24:09;4.70;99.90
67163;DHT22;54092;53.088;8.850;2023-12-22T01:26:35;4.70;99.90
67163;DHT22;54092;53.088;8.850;2023-12-22T01:29:00;4.70;99.90
67163;DHT22;54092;53.088;8.850;2023-12-22T01:31:26;4.70;99.90
67163;DHT22;54092;53.088;8.850;2023-12-22T01:33:51;4.70;99.90
67163;DHT22;54092;53.088;8.850;2023-12-22T01:36:17;4.70;99.90
67163;DHT22;54092;53.088;8.850;2023-12-22T01:38:42;4.80;99.90
67163;DHT22;54092;53.088;8.850;2023-12-22T01:41:08;4.80;99.90
67163;DHT22;54092;53.088;8.850;2023-12-22T01:43:34;4.80;99.90
67163;DHT22;54092;53.088;8.850;2023-12-22T01:45:59;4.80;99.90
67163;DHT22;54092;53.088;8.850;2023-12-22T01:48:26;4.80;99.90
67163;DHT22;54092;53.088;8.850;2023-12-22T01:50:53;4.80;99.90
67163;DHT22;54092;53.088;8.850;2023-12-22T01:53:20;4.80;99.90
67163;DHT22;54092;53.088;8.850;2023-12-22T01:55:48;4.80;99.90
67163;DHT22;54092;53.088;8.850;2023-12-22T01:58:13;4.90;99.90
67163;DHT22;54092;53.088;8.850;2023-12-22T02:00:39;4.90;99.90
67163;DHT22;54092;53.088;8.850;2023-12-22T02:03:05;4.90;99.90
67163;DHT22;54092;53.088;8.850;2023-12-22T02:05:31;4.90;99.90
67163;DHT22;54092;53.088;8.850;2023-12-22T02:07:57;5.00;99.90
67163;DHT22;54092;53.088;8.850;2023-12-22T02:10:22;5.00;99.90
67163;DHT22;54092;53.088;8.850;2023-12-22T02:12:48;5.00;99.90
67163;DHT22;54092;53.088;8.850;2023-12-22T02:15:14;4.90;99.90
67163;DHT22;54092;53.088;8.850;2023-12-22T02:17:54;4.80;99.90
67163;DHT22;54092;53.088;8.850;2023-12-22T02:20:21;4.70;99.90
67163;DHT22;54092;53.088;8.850;2023-12-22T02:22:51;4.60;99.90
67163;DHT22;54092;53.088;8.850;2023-12-22T02:25:18;4.50;99.90
67163;DHT22;54092;53.088;8.850;2023-12-22T02:27:49;4.60;99.90
67163;DHT22;54092;53.088;8.850;2023-12-22T02:33:10;4.60;99.90
67163;DHT22;54092;53.088;8.850;2023-12-22T02:35:38;4.70;99.90
67163;DHT22;54092;53.088;8.850;2023-12-22T02:38:07;4.50;99.90
67163;DHT22;54092;53.088;8.850;2023-12-22T02:40:34;4.40;99.90
67163;DHT22;54092;53.088;8.850;2023-12-22T02:43:01;4.30;99.90
67163;DHT22;54092;53.088;8.850;2023-12-22T02:45:27;4.30;99.90
67163;DHT22;54092;53.088;8.850;2023-12-22T02:47:53;4.30;99.90
67163;DHT22;54092;53.088;8.850;2023-12-22T02:50:18;4.30;99.90
67163;DHT22;54092;53.088;8.850;2023-12-22T02:52:44;4.30;99.90
67163;DHT22;54092;53.088;8.850;2023-12-22T02:55:09;4.30;99.90
67163;DHT22;54092;53.088;8.850;2023-12-22T02:57:35;4.30;99.90
67163;DHT22;54092;53.088;8.850;2023-12-22T03:00:01;4.30;99.90
67163;DHT22;54092;53.088;8.850;2023-12-22T03:02:26;4.30;99.90
67163;DHT22;54092;53.088;8.850;2023-12-22T03:04:52;4.30;99.90
67163;DHT22;54092;53.088;8.850;2023-12-22T03:07:17;4.30;99.90
67163;DHT22;54092;53.088;8.850;2023-12-22T03:09:43;4.40;99.90
67163;DHT22;54092;53.088;8.850;2023-12-22T03:12:09;4.40;99.90
67163;DHT22;54092;53.088;8.850;2023-12-22T03:14:35;4.50;99.90
67163;DHT22;54092;53.088;8.850;2023-12-22T03:17:02;4.50;99.90
67163;DHT22;54092;53.088;8.850;2023-12-22T03:19:27;4.50;99.90
67163;DHT22;54092;53.088;8.850;2023-12-22T03:21:53;4.50;99.90
67163;DHT22;54092;53.088;8.850;2023-12-22T03:24:19;4.60;99.90
67163;DHT22;54092;53.088;8.850;2023-12-22T03:26:46;4.70;99.90
67163;DHT22;54092;53.088;8.850;2023-12-22T03:29:12;4.90;99.90
67163;DHT22;54092;53.088;8.850;2023-12-22T03:31:37;4.90;99.90
67163;DHT22;54092;53.088;8.850;2023-12-22T03:34:03;4.90;99.90
67163;DHT22;54092;53.088;8.850;2023-12-22T03:36:28;4.70;99.90
67163;DHT22;54092;53.088;8.850;2023-12-22T03:38:54;4.60;99.90
67163;DHT22;54092;53.088;8.850;2023-12-22T03:41:19;4.60;99.90
67163;DHT22;54092;53.088;8.850;2023-12-22T03:43:45;4.50;99.90
67163;DHT22;54092;53.088;8.850;2023-12-22T03:46:10;4.50;99.90
67163;DHT22;54092;53.088;8.850;2023-12-22T03:48:36;4.50;99.90
67163;DHT22;54092;53.088;8.850;2023-12-22T03:51:01;4.40;99.90
67163;DHT22;54092;53.088;8.850;2023-12-22T03:53:27;4.40;99.90
67163;DHT22;54092;53.088;8.850;2023-12-22T03:55:52;4.40;99.90
67163;DHT22;54092;53.088;8.850;2023-12-22T03:58:18;4.40;99.90
67163;DHT22;54092;53.088;8.850;2023-12-22T04:00:43;4.40;99.90
67163;DHT22;54092;53.088;8.850;2023-12-22T04:03:08;4.30;99.90
67163;DHT22;54092;53.088;8.850;2023-12-22T04:05:34;4.30;99.90
67163;DHT22;54092;53.088;8.850;2023-12-22T04:07:59;4.40;99.90
67163;DHT22;54092;53.088;8.850;2023-12-22T04:10:25;4.40;99.90
67163;DHT22;54092;53.088;8.850;2023-12-22T04:12:50;4.50;99.90
67163;DHT22;54092;53.088;8.850;2023-12-22T04:15:16;4.60;99.90
67163;DHT22;54092;53.088;8.850;2023-12-22T04:17:41;4.70;99.90
67163;DHT22;54092;53.088;8.850;2023-12-22T04:20:07;4.80;99.90
67163;DHT22;54092;53.088;8.850;2023-12-22T04:22:33;4.80;99.90
67163;DHT22;54092;53.088;8.850;2023-12-22T04:24:59;4.90;99.90
67163;DHT22;54092;53.088;8.850;2023-12-22T04:27:24;4.90;99.90
67163;DHT22;54092;53.088;8.850;2023-12-22T04:29:50;5.00;99.90
67163;DHT22;54092;53.088;8.850;2023-12-22T04:32:15;4.90;99.90
67163;DHT22;54092;53.088;8.850;2023-12-22T04:34:41;4.80;99.90
67163;DHT22;54092;53.088;8.850;2023-12-22T04:37:06;4.70;99.90
67163;DHT22;54092;53.088;8.850;2023-12-22T04:39:32;4.70;99.90
67163;DHT22;54092;53.088;8.850;2023-12-22T04:41:57;4.80;99.90
67163;DHT22;54092;53.088;8.850;2023-12-22T04:44:23;4.90;99.90
67163;DHT22;54092;53.088;8.850;2023-12-22T04:46:49;4.80;99.90
67163;DHT22;54092;53.088;8.850;2023-12-22T04:49:14;4.70;99.90
67163;DHT22;54092;53.088;8.850;2023-12-22T04:51:40;4.50;99.90
67163;DHT22;54092;53.088;8.850;2023-12-22T04:54:05;4.40;99.90
67163;DHT22;54092;53.088;8.850;2023-12-22T04:56:31;4.40;99.90
67163;DHT22;54092;53.088;8.850;2023-12-22T04:58:57;4.40;99.90
67163;DHT22;54092;53.088;8.850;2023-12-22T05:01:23;4.40;99.90
67163;DHT22;54092;53.088;8.850;2023-12-22T05:03:48;4.30;99.90
67163;DHT22;54092;53.088;8.850;2023-12-22T05:06:14;4.30;99.90
67163;DHT22;54092;53.088;8.850;2023-12-22T05:08:39;4.30;99.90
67163;DHT22;54092;53.088;8.850;2023-12-22T05:11:05;4.40;99.90
67163;DHT22;54092;53.088;8.850;2023-12-22T05:13:30;4.50;99.90
67163;DHT22;54092;53.088;8.850;2023-12-22T05:15:56;4.60;99.90
67163;DHT22;54092;53.088;8.850;2023-12-22T05:18:21;4.60;99.90
67163;DHT22;54092;53.088;8.850;2023-12-22T05:20:47;4.50;99.90
67163;DHT22;54092;53.088;8.850;2023-12-22T05:23:12;4.50;99.90
67163;DHT22;54092;53.088;8.850;2023-12-22T05:25:38;4.50;99.90
67163;DHT22;54092;53.088;8.850;2023-12-22T05:28:03;4.60;99.90
67163;DHT22;54092;53.088;8.850;2023-12-22T05:30:29;4.60;99.90
67163;DHT22;54092;53.088;8.850;2023-12-22T05:32:54;4.60;99.90
67163;DHT22;54092;53.088;8.850;2023-12-22T05:35:20;4.70;99.90
67163;DHT22;54092;53.088;8.850;2023-12-22T05:37:46;4.80;99.90
67163;DHT22;54092;53.088;8.850;2023-12-22T05:40:13;4.90;99.90
67163;DHT22;54092;53.088;8.850;2023-12-22T05:42:38;5.00;99.90
67163;DHT22;54092;53.088;8.850;2023-12-22T05:45:04;5.00;99.90
67163;DHT22;54092;53.088;8.850;2023-12-22T05:47:31;5.10;99.90
67163;DHT22;54092;53.088;8.850;2023-12-22T05:49:57;5.10;99.90
67163;DHT22;54092;53.088;8.850;2023-12-22T05:52:22;5.10;99.90
67163;DHT22;54092;53.088;8.850;2023-12-22T05:54:48;5.00;99.90
67163;DHT22;54092;53.088;8.850;2023-12-22T05:57:13;4.90;99.90
67163;DHT22;54092;53.088;8.850;2023-12-22T05:59:39;4.90;99.90
67163;DHT22;54092;53.088;8.850;2023-12-22T06:02:04;4.80;99.90
67163;DHT22;54092;53.088;8.850;2023-12-22T06:04:30;4.70;99.90
67163;DHT22;54092;53.088;8.850;2023-12-22T06:06:56;4.70;99.90
67163;DHT22;54092;53.088;8.850;2023-12-22T06:09:21;4.70;99.90
67163;DHT22;54092;53.088;8.850;2023-12-22T06:11:48;4.80;99.90
67163;DHT22;54092;53.088;8.850;2023-12-22T06:14:13;4.90;99.90
67163;DHT22;54092;53.088;8.850;2023-12-22T06:16:39;4.80;99.90
67163;DHT22;54092;53.088;8.850;2023-12-22T06:19:05;4.90;99.90
67163;DHT22;54092;53.088;8.850;2023-12-22T06:21:30;4.90;99.90
67163;DHT22;54092;53.088;8.850;2023-12-22T06:23:56;4.90;99.90
67163;DHT22;54092;53.088;8.850;2023-12-22T06:26:21;4.70;99.90
67163;DHT22;54092;53.088;8.850;2023-12-22T06:28:47;4.60;99.90
67163;DHT22;54092;53.088;8.850;2023-12-22T06:31:19;4.50;99.90
67163;DHT22;54092;53.088;8.850;2023-12-22T06:33:49;4.60;99.90
67163;DHT22;54092;53.088;8.850;2023-12-22T06:36:22;4.60;99.90
67163;DHT22;54092;53.088;8.850;2023-12-22T06:38:48;4.50;99.90
67163;DHT22;54092;53.088;8.850;2023-12-22T06:41:32;4.50;99.90
67163;DHT22;54092;53.088;8.850;2023-12-22T06:43:58;4.40;99.90
67163;DHT22;54092;53.088;8.850;2023-12-22T06:46:27;4.40;99.90
67163;DHT22;54092;53.088;8.850;2023-12-22T06:48:54;4.40;99.90
67163;DHT22;54092;53.088;8.850;2023-12-22T06:51:30;4.30;99.90
67163;DHT22;54092;53.088;8.850;2023-12-22T06:53:56;4.30;99.90
67163;DHT22;54092;53.088;8.850;2023-12-22T06:56:24;4.30;99.90
67163;DHT22;54092;53.088;8.850;2023-12-22T06:58:51;4.30;99.90
67163;DHT22;54092;53.088;8.850;2023-12-22T07:01:21;4.40;99.90
67163;DHT22;54092;53.088;8.850;2023-12-22T07:03:47;4.50;99.90
67163;DHT22;54092;53.088;8.850;2023-12-22T07:06:17;4.50;99.90
67163;DHT22;54092;53.088;8.850;2023-12-22T07:08:43;4.60;99.90
67163;DHT22;54092;53.088;8.850;2023-12-22T07:11:09;4.60;99.90
67163;DHT22;54092;53.088;8.850;2023-12-22T07:13:35;4.60;99.90
67163;DHT22;54092;53.088;8.850;2023-12-22T07:16:01;4.50;99.90
67163;DHT22;54092;53.088;8.850;2023-12-22T07:18:27;4.50;99.90
67163;DHT22;54092;53.088;8.850;2023-12-22T07:20:59;4.40;99.90
67163;DHT22;54092;53.088;8.850;2023-12-22T07:23:24;4.30;99.90
67163;DHT22;54092;53.088;8.850;2023-12-22T07:25:50;4.30;99.90
67163;DHT22;54092;53.088;8.850;2023-12-22T07:28:15;4.40;99.90
67163;DHT22;54092;53.088;8.850;2023-12-22T07:30:41;4.40;99.90
67163;DHT22;54092;53.088;8.850;2023-12-22T07:33:07;4.50;99.90
67163;DHT22;54092;53.088;8.850;2023-12-22T07:35:33;4.50;99.90
67163;DHT22;54092;53.088;8.850;2023-12-22T07:37:58;4.60;99.90
67163;DHT22;54092;53.088;8.850;2023-12-22T07:40:24;4.60;99.90
67163;DHT22;54092;53.088;8.850;2023-12-22T07:42:49;4.60;99.90
67163;DHT22;54092;53.088;8.850;2023-12-22T07:45:15;4.70;99.90
67163;DHT22;54092;53.088;8.850;2023-12-22T07:47:41;4.70;99.90
67163;DHT22;54092;53.088;8.850;2023-12-22T07:50:07;4.80;99.90
67163;DHT22;54092;53.088;8.850;2023-12-22T07:52:34;4.70;99.90
67163;DHT22;54092;53.088;8.850;2023-12-22T07:55:04;4.80;99.90
67163;DHT22;54092;53.088;8.850;2023-12-22T07:57:30;4.80;99.90
67163;DHT22;54092;53.088;8.850;2023-12-22T07:59:55;4.80;99.90
67163;DHT22;54092;53.088;8.850;2023-12-22T08:02:21;4.90;99.90
67163;DHT22;54092;53.088;8.850;2023-12-22T08:04:48;5.00;99.90
67163;DHT22;54092;53.088;8.850;2023-12-22T08:07:14;5.00;99.90
67163;DHT22;54092;53.088;8.850;2023-12-22T08:09:39;5.00;99.90
67163;DHT22;54092;53.088;8.850;2023-12-22T08:12:05;5.00;99.90
67163;DHT22;54092;53.088;8.850;2023-12-22T08:14:31;5.10;99.90
67163;DHT22;54092;53.088;8.850;2023-12-22T08:16:56;5.20;99.90
67163;DHT22;54092;53.088;8.850;2023-12-22T08:19:22;5.30;99.90
67163;DHT22;54092;53.088;8.850;2023-12-22T08:21:47;5.40;99.90
67163;DHT22;54092;53.088;8.850;2023-12-22T08:24:13;5.50;99.90
67163;DHT22;54092;53.088;8.850;2023-12-22T08:26:38;5.50;99.90
67163;DHT22;54092;53.088;8.850;2023-12-22T08:29:04;5.60;99.90
67163;DHT22;54092;53.088;8.850;2023-12-22T08:31:29;5.70;99.90
67163;DHT22;54092;53.088;8.850;2023-12-22T08:33:55;5.80;99.90
67163;DHT22;54092;53.088;8.850;2023-12-22T08:36:21;6.10;99.90
67163;DHT22;54092;53.088;8.850;2023-12-22T08:38:46;6.40;99.90
67163;DHT22;54092;53.088;8.850;2023-12-22T08:41:12;6.20;99.90
67163;DHT22;54092;53.088;8.850;2023-12-22T08:43:39;5.70;99.90
67163;DHT22;54092;53.088;8.850;2023-12-22T08:46:05;5.50;99.90
67163;DHT22;54092;53.088;8.850;2023-12-22T08:48:31;5.30;99.90
67163;DHT22;54092;53.088;8.850;2023-12-22T08:50:56;5.10;99.90
67163;DHT22;54092;53.088;8.850;2023-12-22T08:53:22;5.10;99.90
67163;DHT22;54092;53.088;8.850;2023-12-22T08:55:47;5.20;99.90
67163;DHT22;54092;53.088;8.850;2023-12-22T08:58:13;5.20;99.90
67163;DHT22;54092;53.088;8.850;2023-12-22T09:00:38;5.30;99.90
67163;DHT22;54092;53.088;8.850;2023-12-22T09:03:04;5.40;99.90
67163;DHT22;54092;53.088;8.850;2023-12-22T09:05:29;5.40;99.90
67163;DHT22;54092;53.088;8.850;2023-12-22T09:07:55;5.40;99.90
67163;DHT22;54092;53.088;8.850;2023-12-22T09:10:21;5.50;99.90
67163;DHT22;54092;53.088;8.850;2023-12-22T09:12:46;5.50;99.90
67163;DHT22;54092;53.088;8.850;2023-12-22T09:15:12;5.60;99.90
67163;DHT22;54092;53.088;8.850;2023-12-22T09:17:38;5.60;99.90
67163;DHT22;54092;53.088;8.850;2023-12-22T09:20:03;5.60;99.90
67163;DHT22;54092;53.088;8.850;2023-12-22T09:22:29;5.50;99.90
67163;DHT22;54092;53.088;8.850;2023-12-22T09:24:54;5.50;99.90
67163;DHT22;54092;53.088;8.850;2023-12-22T09:27:20;5.50;99.90
67163;DHT22;54092;53.088;8.850;2023-12-22T09:29:45;5.50;99.90
67163;DHT22;54092;53.088;8.850;2023-12-22T09:32:11;5.60;99.90
67163;DHT22;54092;53.088;8.850;2023-12-22T09:34:36;5.50;99.90
67163;DHT22;54092;53.088;8.850;2023-12-22T09:37:02;5.50;99.90
67163;DHT22;54092;53.088;8.850;2023-12-22T09:39:27;5.50;99.90
67163;DHT22;54092;53.088;8.850;2023-12-22T09:41:54;5.50;99.90
67163;DHT22;54092;53.088;8.850;2023-12-22T09:44:20;5.40;99.90
67163;DHT22;54092;53.088;8.850;2023-12-22T09:46:48;5.50;99.90
67163;DHT22;54092;53.088;8.850;2023-12-22T09:49:17;5.40;99.90
67163;DHT22;54092;53.088;8.850;2023-12-22T09:51:44;5.40;99.90
67163;DHT22;54092;53.088;8.850;2023-12-22T09:54:10;5.30;99.90
67163;DHT22;54092;53.088;8.850;2023-12-22T09:56:37;5.20;99.90
67163;DHT22;54092;53.088;8.850;2023-12-22T09:59:11;5.10;99.90
67163;DHT22;54092;53.088;8.850;2023-12-22T10:01:43;5.10;99.90
67163;DHT22;54092;53.088;8.850;2023-12-22T10:04:15;5.00;99.90
67163;DHT22;54092;53.088;8.850;2023-12-22T10:06:41;5.10;99.90
67163;DHT22;54092;53.088;8.850;2023-12-22T10:09:07;5.00;99.90
67163;DHT22;54092;53.088;8.850;2023-12-22T10:11:35;5.00;99.90
67163;DHT22;54092;53.088;8.850;2023-12-22T10:14:02;5.00;99.90
67163;DHT22;54092;53.088;8.850;2023-12-22T10:16:29;4.90;99.90
67163;DHT22;54092;53.088;8.850;2023-12-22T10:18:55;4.90;99.90
67163;DHT22;54092;53.088;8.850;2023-12-22T10:21:20;4.80;99.90
67163;DHT22;54092;53.088;8.850;2023-12-22T10:23:46;4.80;99.90
67163;DHT22;54092;53.088;8.850;2023-12-22T10:26:11;4.80;99.90
67163;DHT22;54092;53.088;8.850;2023-12-22T10:28:37;4.70;99.90
67163;DHT22;54092;53.088;8.850;2023-12-22T10:31:03;4.60;99.90
67163;DHT22;54092;53.088;8.850;2023-12-22T10:33:32;4.60;99.90
67163;DHT22;54092;53.088;8.850;2023-12-22T10:35:59;4.70;99.90
67163;DHT22;54092;53.088;8.850;2023-12-22T10:38:26;4.60;99.90
67163;DHT22;54092;53.088;8.850;2023-12-22T10:40:52;4.60;99.90
67163;DHT22;54092;53.088;8.850;2023-12-22T10:43:17;4.50;99.90
67163;DHT22;54092;53.088;8.850;2023-12-22T10:45:43;4.50;99.90
67163;DHT22;54092;53.088;8.850;2023-12-22T10:48:08;4.50;99.90
67163;DHT22;54092;53.088;8.850;2023-12-22T10:50:35;4.50;99.90
67163;DHT22;54092;53.088;8.850;2023-12-22T10:53:01;4.60;99.90
67163;DHT22;54092;53.088;8.850;2023-12-22T10:55:26;4.60;99.90
67163;DHT22;54092;53.088;8.850;2023-12-22T10:57:53;4.70;99.90
67163;DHT22;54092;53.088;8.850;2023-12-22T11:00:20;4.70;99.90
67163;DHT22;54092;53.088;8.850;2023-12-22T11:02:47;4.70;99.90
67163;DHT22;54092;53.088;8.850;2023-12-22T11:05:17;4.90;99.90
67163;DHT22;54092;53.088;8.850;2023-12-22T11:07:48;5.00;99.90
67163;DHT22;54092;53.088;8.850;2023-12-22T11:10:14;5.10;99.90
67163;DHT22;54092;53.088;8.850;2023-12-22T11:12:43;5.10;99.90
67163;DHT22;54092;53.088;8.850;2023-12-22T11:15:10;5.10;99.90
67163;DHT22;54092;53.088;8.850;2023-12-22T11:17:37;5.10;99.90
67163;DHT22;54092;53.088;8.850;2023-12-22T11:20:06;5.20;99.90
67163;DHT22;54092;53.088;8.850;2023-12-22T11:22:36;5.30;99.90
67163;DHT22;54092;53.088;8.850;2023-12-22T11:25:02;5.40;99.90
67163;DHT22;54092;53.088;8.850;2023-12-22T11:27:29;5.50;99.90
67163;DHT22;54092;53.088;8.850;2023-12-22T11:29:55;5.50;99.90
67163;DHT22;54092;53.088;8.850;2023-12-22T11:32:20;5.70;99.90
67163;DHT22;54092;53.088;8.850;2023-12-22T11:34:47;5.70;99.90
67163;DHT22;54092;53.088;8.850;2023-12-22T11:37:14;5.70;99.90
67163;DHT22;54092;53.088;8.850;2023-12-22T11:39:41;5.80;99.90
67163;DHT22;54092;53.088;8.850;2023-12-22T11:42:10;5.80;99.90
67163;DHT22;54092;53.088;8.850;2023-12-22T11:44:36;5.80;99.90
67163;DHT22;54092;53.088;8.850;2023-12-22T11:47:09;5.90;99.90
67163;DHT22;54092;53.088;8.850;2023-12-22T11:49:35;5.90;99.90
67163;DHT22;54092;53.088;8.850;2023-12-22T11:52:15;6.00;99.90
67163;DHT22;54092;53.088;8.850;2023-12-22T11:54:48;6.00;99.90
67163;DHT22;54092;53.088;8.850;2023-12-22T11:59:53;6.00;99.90
67163;DHT22;54092;53.088;8.850;2023-12-22T12:02:18;6.10;99.90
67163;DHT22;54092;53.088;8.850;2023-12-22T12:04:46;6.10;99.90
67163;DHT22;54092;53.088;8.850;2023-12-22T12:07:41;6.10;99.90
67163;DHT22;54092;53.088;8.850;2023-12-22T12:10:14;6.10;99.90
67163;DHT22;54092;53.088;8.850;2023-12-22T12:13:24;6.00;99.90
67163;DHT22;54092;53.088;8.850;2023-12-22T12:15:52;6.10;99.90
67163;DHT22;54092;53.088;8.850;2023-12-22T12:18:22;6.10;99.90
67163;DHT22;54092;53.088;8.850;2023-12-22T12:20:49;6.20;99.90
67163;DHT22;54092;53.088;8.850;2023-12-22T12:23:15;6.10;99.90
67163;DHT22;54092;53.088;8.850;2023-12-22T12:25:42;6.10;99.90
67163;DHT22;54092;53.088;8.850;2023-12-22T12:28:08;6.20;99.90
67163;DHT22;54092;53.088;8.850;2023-12-22T12:30:35;6.20;99.90
67163;DHT22;54092;53.088;8.850;2023-12-22T12:33:09;6.20;99.90
67163;DHT22;54092;53.088;8.850;2023-12-22T12:35:35;6.20;99.90
67163;DHT22;54092;53.088;8.850;2023-12-22T12:38:02;6.30;99.90
67163;DHT22;54092;53.088;8.850;2023-12-22T12:40:28;6.30;99.90
67163;DHT22;54092;53.088;8.850;2023-12-22T12:43:01;6.40;99.90
67163;DHT22;54092;53.088;8.850;2023-12-22T12:45:27;6.40;99.90
67163;DHT22;54092;53.088;8.850;2023-12-22T12:47:56;6.40;99.90
67163;DHT22;54092;53.088;8.850;2023-12-22T12:50:23;6.50;99.90
67163;DHT22;54092;53.088;8.850;2023-12-22T12:52:50;6.50;99.90
67163;DHT22;54092;53.088;8.850;2023-12-22T12:55:24;6.50;99.90
67163;DHT22;54092;53.088;8.850;2023-12-22T12:57:54;6.40;99.90
67163;DHT22;54092;53.088;8.850;2023-12-22T13:00:31;6.50;99.90
67163;DHT22;54092;53.088;8.850;2023-12-22T13:03:01;6.40;99.90
67163;DHT22;54092;53.088;8.850;2023-12-22T13:05:30;6.30;99.90
67163;DHT22;54092;53.088;8.850;2023-12-22T13:08:13;6.30;99.90
67163;DHT22;54092;53.088;8.850;2023-12-22T13:10:39;6.30;99.90
67163;DHT22;54092;53.088;8.850;2023-12-22T13:13:05;6.30;99.90
67163;DHT22;54092;53.088;8.850;2023-12-22T13:15:31;6.30;99.90
67163;DHT22;54092;53.088;8.850;2023-12-22T13:17:57;6.30;99.90
67163;DHT22;54092;53.088;8.850;2023-12-22T13:20:23;6.30;99.90
67163;DHT22;54092;53.088;8.850;2023-12-22T13:22:49;6.30;99.90
67163;DHT22;54092;53.088;8.850;2023-12-22T13:25:15;6.40;99.90
67163;DHT22;54092;53.088;8.850;2023-12-22T13:27:47;6.40;99.90
67163;DHT22;54092;53.088;8.850;2023-12-22T13:32:57;6.40;99.90
67163;DHT22;54092;53.088;8.850;2023-12-22T13:35:23;6.40;99.90
67163;DHT22;54092;53.088;8.850;2023-12-22T13:37:49;6.40;99.90
67163;DHT22;54092;53.088;8.850;2023-12-22T13:40:15;6.40;99.90
67163;DHT22;54092;53.088;8.850;2023-12-22T13:42:41;6.30;99.90
67163;DHT22;54092;53.088;8.850;2023-12-22T13:45:11;6.30;99.90
67163;DHT22;54092;53.088;8.850;2023-12-22T13:47:43;6.30;99.90
67163;DHT22;54092;53.088;8.850;2023-12-22T13:50:15;6.30;99.90
67163;DHT22;54092;53.088;8.850;2023-12-22T13:52:41;6.30;99.90
67163;DHT22;54092;53.088;8.850;2023-12-22T13:57:36;6.20;99.90
67163;DHT22;54092;53.088;8.850;2023-12-22T14:00:02;6.20;99.90
67163;DHT22;54092;53.088;8.850;2023-12-22T14:02:30;6.10;99.90
67163;DHT22;54092;53.088;8.850;2023-12-22T14:04:55;6.00;99.90
67163;DHT22;54092;53.088;8.850;2023-12-22T14:07:21;5.90;99.90
67163;DHT22;54092;53.088;8.850;2023-12-22T14:09:46;5.80;99.90
67163;DHT22;54092;53.088;8.850;2023-12-22T14:12:12;5.70;99.90
67163;DHT22;54092;53.088;8.850;2023-12-22T14:14:37;5.60;99.90
67163;DHT22;54092;53.088;8.850;2023-12-22T14:17:03;5.50;99.90
67163;DHT22;54092;53.088;8.850;2023-12-22T14:19:28;5.40;99.90
67163;DHT22;54092;53.088;8.850;2023-12-22T14:21:54;5.40;99.90
67163;DHT22;54092;53.088;8.850;2023-12-22T14:24:19;5.40;99.90
67163;DHT22;54092;53.088;8.850;2023-12-22T14:26:56;5.40;99.90
67163;DHT22;54092;53.088;8.850;2023-12-22T14:29:22;5.40;99.90
67163;DHT22;54092;53.088;8.850;2023-12-22T14:31:49;5.40;99.90
67163;DHT22;54092;53.088;8.850;2023-12-22T14:34:15;5.40;99.90
67163;DHT22;54092;53.088;8.850;2023-12-22T14:36:40;5.40;99.90
67163;DHT22;54092;53.088;8.850;2023-12-22T14:39:06;5.30;99.90
67163;DHT22;54092;53.088;8.850;2023-12-22T14:41:31;5.30;99.90
67163;DHT22;54092;53.088;8.850;2023-12-22T14:43:57;5.30;99.90
67163;DHT22;54092;53.088;8.850;2023-12-22T14:46:22;5.30;99.90
67163;DHT22;54092;53.088;8.850;2023-12-22T14:48:48;5.40;99.90
67163;DHT22;54092;53.088;8.850;2023-12-22T14:51:13;5.30;99.90
67163;DHT22;54092;53.088;8.850;2023-12-22T14:53:39;5.30;99.90
67163;DHT22;54092;53.088;8.850;2023-12-22T14:56:05;5.30;99.90
67163;DHT22;54092;53.088;8.850;2023-12-22T14:58:31;5.30;99.90
67163;DHT22;54092;53.088;8.850;2023-12-22T15:00:57;5.30;99.90
67163;DHT22;54092;53.088;8.850;2023-12-22T15:03:23;5.20;99.90
67163;DHT22;54092;53.088;8.850;2023-12-22T15:05:48;5.20;99.90
67163;DHT22;54092;53.088;8.850;2023-12-22T15:08:14;5.10;99.90
67163;DHT22;54092;53.088;8.850;2023-12-22T15:10:39;5.20;99.90
67163;DHT22;54092;53.088;8.850;2023-12-22T15:13:05;5.20;99.90
67163;DHT22;54092;53.088;8.850;2023-12-22T15:15:30;5.20;99.90
67163;DHT22;54092;53.088;8.850;2023-12-22T15:17:56;5.20;99.90
67163;DHT22;54092;53.088;8.850;2023-12-22T15:20:21;5.20;99.90
67163;DHT22;54092;53.088;8.850;2023-12-22T15:22:46;5.20;99.90
67163;DHT22;54092;53.088;8.850;2023-12-22T15:25:12;5.20;99.90
67163;DHT22;54092;53.088;8.850;2023-12-22T15:27:37;5.20;99.90
67163;DHT22;54092;53.088;8.850;2023-12-22T15:30:05;5.20;99.90
67163;DHT22;54092;53.088;8.850;2023-12-22T15:32:30;5.20;99.90
67163;DHT22;54092;53.088;8.850;2023-12-22T15:34:56;5.20;99.90
67163;DHT22;54092;53.088;8.850;2023-12-22T15:37:21;5.20;99.90
67163;DHT22;54092;53.088;8.850;2023-12-22T15:39:47;5.20;99.90
67163;DHT22;54092;53.088;8.850;2023-12-22T15:42:12;5.20;99.90
67163;DHT22;54092;53.088;8.850;2023-12-22T15:44:41;5.30;99.90
67163;DHT22;54092;53.088;8.850;2023-12-22T15:47:07;5.30;99.90
67163;DHT22;54092;53.088;8.850;2023-12-22T15:49:33;5.30;99.90
67163;DHT22;54092;53.088;8.850;2023-12-22T15:52:02;5.30;99.90